x

Newport, Or (nwpo3) Weather Station

11:00am - Thu 18th Sep 2014 All times are PDT. -7 hours from GMT.

  • Wind
    7mph, 8mph gusts
  • Air Temp 58°f
  • Sea Pressure 1011.6mb
  • Newport, Or
  • Newport, Or

More Historic Weather Station data

Upgrade to MSW Pro to gain access to the past 30 days of data for over 8000 Wavebouys and Weather Stations around the globe.

Join Pro

Comparision Forecast

View Surf forecast
   
Thu 09/18 11:00am 7 8 mph 1011.6mb 58f
10:00am 3 5 mph 1011mb 58f
9:00am 3
mph
1010.4mb 59f
8:00am 2 3 mph 1009.6mb 58f
7:00am 3
mph
1009mb 58f
6:00am 2 3 mph 1008.3mb 58f
5:00am 6 7 mph 1008.1mb 57f
4:00am 3
mph
1007.7mb 58f
3:00am 3 5 mph 1007.6mb 58f
2:00am 3 5 mph 1007.8mb 58f
1:00am 6 7 mph 1008mb 58f
12:00am 2 3 mph 1008.3mb 57f
Wed 09/17 11:00pm 1
mph
1008.1mb 56f
10:00pm 1 2 mph 1008.4mb 56f
9:00pm 9 10 mph 1008.5mb 57f
8:00pm 9 11 mph 1008mb 57f
7:00pm 3 5 mph 1007.4mb 58f
6:00pm 6
mph
1007.8mb 57f
5:00pm 6 8 mph 1009mb 58f
4:00pm 7 8 mph 1008.3mb 58f
3:00pm 8 9 mph 1008.7mb 60f
2:00pm 3 6 mph 1008.2mb 59f
1:00pm 8 9 mph 1008.3mb 59f
12:00pm 2
mph
1007.5mb 59f
11:00am 5 6 mph 1006.7mb 58f
10:00am 5 6 mph 1006.5mb 61f
9:00am 6 7 mph 1006.8mb 58f
8:00am 2
mph
1007.3mb 56f
7:00am 3
mph
1007.6mb 56f
6:00am 3 5 mph 1007.5mb 57f
5:00am  -  1 mph 1008mb 56f
4:00am 3
mph
1008.4mb 57f
3:00am 7 8 mph 1008.8mb 58f
2:00am 5
mph
1009.6mb 58f
1:00am 5 6 mph 1010.3mb 57f
12:00am 5 6 mph 1010.6mb 58f
Tue 09/16 11:00pm 3 5 mph 1011.1mb 59f
10:00pm 1 2 mph 1011.2mb 58f
9:00pm 3
mph
1011.9mb 58f
8:00pm  -  1 mph 1012.2mb 58f
7:00pm 3 5 mph 1012.3mb 59f
6:00pm 3
mph
1012.4mb 60f
5:00pm 5 6 mph 1012.7mb 62f
4:00pm 6
mph
1013.3mb 62f
3:00pm 2 5 mph 1013.6mb 62f
2:00pm 6 7 mph 1014.1mb 61f
1:00pm 7 8 mph 1014.1mb 60f
12:00pm 11 14 mph 1013.9mb 64f
11:00am 3 5 mph 1013.5mb 64f
10:00am  -  6 mph 1013.6mb 63f
9:00am 6 7 mph 1013.4mb 60f
8:00am 7 8 mph 1013.3mb 58f
7:00am 6 8 mph 1013.1mb 57f
6:00am 7 8 mph 1013.2mb 57f
5:00am 5 6 mph 1013.3mb 57f
4:00am 3 5 mph 1013.4mb 57f
3:00am 2 3 mph 1013.4mb 57f
2:00am 3 5 mph 1013.4mb 57f
1:00am 3 5 mph 1013.5mb 57f
12:00am 2 3 mph 1013.3mb 57f
Mon 09/15 11:00pm 5 7 mph 1013.5mb 57f
10:00pm 10 11 mph 1013.3mb 56f
9:00pm 16 20 mph 1013.1mb 55f
8:00pm 10 11 mph 1012.6mb 55f
7:00pm 17 22 mph 1012.2mb 55f
6:00pm 13 15 mph 1012.4mb 55f
5:00pm 13 15 mph 1012.6mb 55f
4:00pm 15 17 mph 1012.5mb 54f
3:00pm 13 16 mph 1012.4mb 54f
2:00pm 15 17 mph 1012.2mb 54f
1:00pm 15 17 mph 1011.9mb 53f
12:00pm 13 15 mph 1011.5mb 53f
11:00am 14 17 mph 1011.6mb 51f
10:00am 11 14 mph 1011.3mb 50f
9:00am 7 8 mph 1010.8mb 48f
8:00am 1 2 mph 1010.7mb 48f
7:00am 5
mph
1011.2mb 47f
6:00am 3
mph
1010.7mb 48f
5:00am  -  mph 1010.4mb 49f
4:00am  -  1 mph 1010.5mb 49f
3:00am  -  mph 1010.6mb 50f
2:00am  -  1 mph 1010.9mb 51f
1:00am 1 2 mph 1010.9mb 53f
12:00am 2
mph
1010.9mb 55f
Sun 09/14 11:00pm  -  mph 1010.8mb 55f
10:00pm 2 3 mph 1010.7mb 56f
9:00pm  -  1 mph 1010.5mb 56f
8:00pm 2 3 mph 1010.4mb 58f